createdAt,value
2018-04-01T00:02:21.730Z,0.80
2018-04-01T00:04:48.908Z,0.90
2018-04-01T00:07:16.039Z,1.10
2018-04-01T00:09:43.211Z,1.00
2018-04-01T00:12:10.376Z,1.30
2018-04-01T00:14:37.604Z,1.10
2018-04-01T00:17:04.732Z,1.00
2018-04-01T00:19:31.914Z,1.20
2018-04-01T00:21:59.077Z,1.30
2018-04-01T00:24:27.597Z,1.30
2018-04-01T00:26:54.781Z,0.90
2018-04-01T00:29:21.918Z,1.20
2018-04-01T00:31:49.082Z,1.30
2018-04-01T00:34:16.219Z,1.10
2018-04-01T00:36:43.388Z,1.00
2018-04-01T00:39:10.548Z,1.10
2018-04-01T00:41:40.034Z,1.00
2018-04-01T00:44:08.098Z,1.00
2018-04-01T00:46:35.268Z,0.90
2018-04-01T00:49:02.399Z,1.20
2018-04-01T00:51:29.587Z,1.20
2018-04-01T00:53:56.745Z,1.20
2018-04-01T00:56:23.868Z,1.20
2018-04-01T00:58:51.049Z,1.20
2018-04-01T01:01:18.245Z,0.80
2018-04-01T01:03:45.424Z,1.00
2018-04-01T01:06:13.554Z,1.10
2018-04-01T01:08:40.906Z,0.90
2018-04-01T01:11:08.300Z,0.90
2018-04-01T01:13:35.898Z,0.70
2018-04-01T01:16:03.021Z,0.90
2018-04-01T01:18:30.976Z,1.00
2018-04-01T01:20:58.106Z,1.00
2018-04-01T01:23:25.360Z,0.70
2018-04-01T01:25:52.588Z,1.10
2018-04-01T01:28:19.716Z,1.10
2018-04-01T01:30:46.885Z,0.90
2018-04-01T01:33:14.013Z,1.10
2018-04-01T01:35:41.145Z,1.00
2018-04-01T01:38:08.581Z,0.90
2018-04-01T01:40:36.701Z,1.00
2018-04-01T01:43:03.875Z,0.90
2018-04-01T01:45:30.998Z,0.90
2018-04-01T01:47:58.166Z,0.90
2018-04-01T01:50:25.298Z,1.10
2018-04-01T01:52:52.465Z,0.80
2018-04-01T01:55:19.903Z,0.90
2018-04-01T01:57:47.070Z,1.20
2018-04-01T02:00:14.207Z,1.20
2018-04-01T02:02:41.384Z,1.10
2018-04-01T02:05:09.273Z,1.00
2018-04-01T02:07:36.569Z,0.80
2018-04-01T02:10:03.696Z,1.00
2018-04-01T02:12:30.858Z,0.90
2018-04-01T02:14:58.021Z,1.00
2018-04-01T02:17:25.383Z,0.70
2018-04-01T02:19:52.551Z,1.30
2018-04-01T02:22:19.715Z,1.10
2018-04-01T02:24:47.606Z,0.90
2018-04-01T02:27:14.781Z,0.90
2018-04-01T02:29:41.908Z,1.20
2018-04-01T02:32:09.080Z,1.20
2018-04-01T02:34:36.209Z,1.10
2018-04-01T02:37:03.374Z,1.00
2018-04-01T02:39:30.504Z,0.70
2018-04-01T02:41:57.671Z,1.10
2018-04-01T02:44:24.795Z,0.90
2018-04-01T02:46:51.976Z,1.10
2018-04-01T02:49:19.117Z,0.80
2018-04-01T02:51:46.295Z,1.00
2018-04-01T02:54:13.433Z,0.90
2018-04-01T02:56:40.616Z,1.20
2018-04-01T02:59:08.522Z,1.10
2018-04-01T03:01:35.685Z,1.10
2018-04-01T03:04:02.855Z,1.10
2018-04-01T03:06:30.717Z,1.00
2018-04-01T03:08:57.897Z,0.70
2018-04-01T03:11:25.065Z,1.20
2018-04-01T03:13:52.246Z,1.20
2018-04-01T03:16:19.368Z,1.10
2018-04-01T03:18:46.549Z,1.20
2018-04-01T03:21:13.784Z,1.10
2018-04-01T03:23:40.961Z,1.00
2018-04-01T03:26:08.086Z,0.70
2018-04-01T03:28:35.214Z,1.20
2018-04-01T03:31:02.381Z,0.90
2018-04-01T03:33:29.517Z,1.00
2018-04-01T03:35:56.983Z,1.10
2018-04-01T03:38:24.124Z,1.00
2018-04-01T03:40:51.282Z,0.90
2018-04-01T03:43:18.407Z,0.90
2018-04-01T03:45:45.564Z,0.90
2018-04-01T03:48:12.688Z,0.90
2018-04-01T03:50:39.849Z,1.00
2018-04-01T03:53:06.973Z,1.00
2018-04-01T03:55:34.931Z,0.80
2018-04-01T03:58:02.096Z,0.90
2018-04-01T04:00:29.892Z,1.00
2018-04-01T04:02:57.047Z,1.10
2018-04-01T04:05:24.420Z,0.80
2018-04-01T04:07:51.590Z,0.80
2018-04-01T04:10:18.729Z,0.70
2018-04-01T04:12:45.899Z,0.90
2018-04-01T04:15:13.037Z,1.20
2018-04-01T04:17:40.205Z,1.20
2018-04-01T04:20:07.498Z,1.20
2018-04-01T04:22:34.622Z,1.10
2018-04-01T04:25:01.785Z,1.00
2018-04-01T04:27:28.953Z,1.30
2018-04-01T04:29:56.141Z,0.90
2018-04-01T04:32:23.306Z,1.10
2018-04-01T04:34:50.437Z,1.00
2018-04-01T04:37:17.605Z,0.90
2018-04-01T04:39:44.764Z,1.10
2018-04-01T04:42:12.177Z,1.00
2018-04-01T04:44:40.348Z,1.20
2018-04-01T04:47:07.581Z,1.20
2018-04-01T04:49:34.741Z,1.10
2018-04-01T04:52:01.887Z,1.10
2018-04-01T04:54:29.052Z,1.10
2018-04-01T04:56:57.008Z,0.80
2018-04-01T04:59:25.648Z,1.30
2018-04-01T05:01:52.777Z,1.30
2018-04-01T05:04:19.949Z,0.90
2018-04-01T05:06:47.125Z,0.80
2018-04-01T05:09:14.293Z,1.10
2018-04-01T05:11:41.642Z,1.00
2018-04-01T05:14:08.998Z,0.90
2018-04-01T05:16:36.628Z,0.90
2018-04-01T05:19:03.766Z,0.80
2018-04-01T05:21:31.041Z,1.10
2018-04-01T05:23:58.193Z,0.80
2018-04-01T05:26:26.581Z,0.90
2018-04-01T05:28:54.618Z,0.90
2018-04-01T05:31:21.794Z,0.90
2018-04-01T05:33:51.498Z,0.90
2018-04-01T05:36:19.832Z,0.90
2018-04-01T05:38:48.933Z,0.80
2018-04-01T05:41:16.402Z,0.90
2018-04-01T05:43:43.938Z,0.80
2018-04-01T05:46:11.083Z,0.90
2018-04-01T05:48:38.251Z,0.70
2018-04-01T05:51:05.382Z,0.90
2018-04-01T05:53:32.555Z,0.80
2018-04-01T05:55:59.686Z,0.80
2018-04-01T05:58:26.865Z,1.30
2018-04-01T06:00:54.029Z,1.30
2018-04-01T06:03:21.162Z,1.20
2018-04-01T06:05:48.329Z,1.40
2018-04-01T06:08:15.464Z,0.90
2018-04-01T06:10:43.443Z,1.10
2018-04-01T06:13:10.683Z,1.30
2018-04-01T06:15:37.810Z,1.10
2018-04-01T06:18:06.033Z,1.40
2018-04-01T06:20:33.246Z,1.10
2018-04-01T06:23:00.377Z,1.30
2018-04-01T06:25:27.511Z,1.20
2018-04-01T06:27:54.673Z,1.00
2018-04-01T06:30:21.881Z,1.10
2018-04-01T06:32:49.004Z,1.10
2018-04-01T06:35:16.329Z,1.30
2018-04-01T06:37:43.702Z,1.10
2018-04-01T06:40:10.867Z,1.00
2018-04-01T06:42:41.995Z,1.30
2018-04-01T06:45:09.237Z,1.50
2018-04-01T06:47:36.580Z,1.30
2018-04-01T06:50:03.906Z,1.40
2018-04-01T06:52:31.068Z,1.70
2018-04-01T06:54:58.185Z,1.60
2018-04-01T06:57:26.221Z,1.40
2018-04-01T06:59:53.385Z,1.90
2018-04-01T07:02:20.585Z,1.60
2018-04-01T07:04:47.769Z,2.00
2018-04-01T07:07:14.897Z,1.70
2018-04-01T07:09:42.064Z,1.70
2018-04-01T07:12:09.252Z,1.70
2018-04-01T07:14:37.168Z,1.70
2018-04-01T07:17:04.315Z,2.10
2018-04-01T07:19:31.488Z,1.60
2018-04-01T07:21:58.655Z,2.00
2018-04-01T07:24:26.364Z,2.00
2018-04-01T07:26:53.564Z,1.60
2018-04-01T07:29:21.389Z,2.20
2018-04-01T07:31:48.521Z,1.80
2018-04-01T07:34:16.234Z,1.80
2018-04-01T07:36:43.411Z,2.10
2018-04-01T07:39:10.558Z,2.30
2018-04-01T07:41:37.694Z,1.60
2018-04-01T07:44:04.852Z,2.00
2018-04-01T07:46:32.372Z,1.70
2018-04-01T07:48:59.533Z,1.70
2018-04-01T07:51:27.428Z,2.30
2018-04-01T07:53:54.602Z,2.10
2018-04-01T07:56:21.730Z,2.20
2018-04-01T07:58:48.911Z,2.40
2018-04-01T08:01:16.075Z,1.90
2018-04-01T08:03:43.199Z,2.30
2018-04-01T08:06:10.366Z,1.90
2018-04-01T08:08:37.609Z,2.00
2018-04-01T08:11:04.737Z,2.00
2018-04-01T08:13:31.894Z,2.60
2018-04-01T08:15:59.265Z,1.90
2018-04-01T08:18:27.128Z,1.70
2018-04-01T08:20:54.295Z,1.80
2018-04-01T08:23:21.742Z,2.30
2018-04-01T08:25:48.908Z,2.10
2018-04-01T08:28:16.800Z,1.90
2018-04-01T08:30:44.102Z,2.10
2018-04-01T08:33:11.456Z,2.20
2018-04-01T08:35:38.621Z,1.90
2018-04-01T08:38:06.083Z,1.90
2018-04-01T08:40:33.245Z,1.90
2018-04-01T08:43:00.365Z,2.60
2018-04-01T08:45:28.301Z,2.20
2018-04-01T08:47:55.429Z,2.40
2018-04-01T08:50:22.615Z,2.60
2018-04-01T08:52:49.745Z,2.20
2018-04-01T08:59:24.060Z,2.60
2018-04-01T09:01:51.177Z,2.80
2018-04-01T09:04:19.125Z,2.50
2018-04-01T09:06:46.282Z,2.50
2018-04-01T09:09:13.521Z,2.60
2018-04-01T09:11:40.693Z,2.60
2018-04-01T09:14:08.589Z,2.50
2018-04-01T09:16:35.824Z,2.50
2018-04-01T09:19:02.953Z,2.50
2018-04-01T09:21:30.853Z,2.50
2018-04-01T09:23:58.036Z,2.30
2018-04-01T09:26:25.183Z,2.50
2018-04-01T09:28:52.344Z,2.00
2018-04-01T09:31:19.480Z,2.90
2018-04-01T09:33:46.654Z,2.90
2018-04-01T09:36:13.775Z,2.80
2018-04-01T09:38:41.247Z,2.70
2018-04-01T09:41:08.413Z,2.90
2018-04-01T09:43:35.844Z,3.00
2018-04-01T09:46:03.019Z,2.90
2018-04-01T09:48:30.465Z,3.10
2018-04-01T09:50:57.650Z,3.20
2018-04-01T09:53:24.808Z,3.20
2018-04-01T09:55:51.930Z,3.20
2018-04-01T09:58:19.861Z,2.90
2018-04-01T10:01:00.638Z,2.70
2018-04-01T10:03:28.509Z,2.50
2018-04-01T10:05:56.301Z,2.70
2018-04-01T10:08:23.932Z,3.10
2018-04-01T10:10:51.556Z,3.00
2018-04-01T10:13:19.246Z,3.20
2018-04-01T10:15:46.900Z,2.90
2018-04-01T10:18:14.523Z,3.10
2018-04-01T10:20:42.178Z,3.10
2018-04-01T10:23:09.801Z,3.20
2018-04-01T10:25:39.670Z,2.90
2018-04-01T10:28:07.328Z,3.00
2018-04-01T10:30:35.181Z,2.90
2018-04-01T10:33:02.790Z,3.20
2018-04-01T10:35:30.458Z,2.90
2018-04-01T10:37:58.085Z,2.90
2018-04-01T10:40:25.772Z,2.80
2018-04-01T10:42:53.432Z,3.20
2018-04-01T10:45:21.095Z,2.90
2018-04-01T10:47:49.496Z,3.20
2018-04-01T10:50:17.882Z,3.20
2018-04-01T10:52:45.538Z,2.80
2018-04-01T10:55:13.377Z,2.70
2018-04-01T10:57:40.509Z,3.10
2018-04-01T11:00:08.244Z,3.00
2018-04-01T11:02:35.420Z,2.90
2018-04-01T11:05:02.749Z,3.00
2018-04-01T11:07:29.915Z,3.10
2018-04-01T11:09:57.279Z,3.10
2018-04-01T11:12:24.439Z,3.00
2018-04-01T11:14:53.326Z,3.20
2018-04-01T11:17:20.492Z,2.90
2018-04-01T11:19:47.661Z,3.20
2018-04-01T11:22:14.848Z,3.20
2018-04-01T11:24:45.362Z,3.10
2018-04-01T11:27:12.538Z,3.00
2018-04-01T11:29:39.674Z,3.20
2018-04-01T11:32:06.840Z,3.20
2018-04-01T11:34:33.970Z,3.00
2018-04-01T11:37:01.142Z,3.20
2018-04-01T11:39:28.282Z,3.00
2018-04-01T11:41:55.450Z,3.20
2018-04-01T11:44:22.634Z,3.20
2018-04-01T11:46:49.849Z,3.10
2018-04-01T11:49:17.746Z,3.10
2018-04-01T11:51:44.934Z,3.00
2018-04-01T11:54:12.069Z,3.10
2018-04-01T11:56:39.235Z,3.50
2018-04-01T11:59:06.493Z,3.50
2018-04-01T12:01:33.653Z,3.50
2018-04-01T12:04:00.787Z,3.50
2018-04-01T12:06:27.944Z,3.70
2018-04-01T12:08:55.097Z,3.50
2018-04-01T12:11:22.259Z,3.40
2018-04-01T12:13:49.382Z,3.40
2018-04-01T12:16:16.544Z,3.50
2018-04-01T12:18:43.667Z,3.60
2018-04-01T12:21:10.848Z,3.40
2018-04-01T12:23:38.017Z,3.40
2018-04-01T12:26:06.136Z,3.30
2018-04-01T12:28:33.310Z,3.30
2018-04-01T12:31:01.953Z,3.30
2018-04-01T12:33:29.125Z,3.30
2018-04-01T12:35:56.869Z,3.40
2018-04-01T12:38:24.003Z,3.40
2018-04-01T12:40:51.292Z,3.50
2018-04-01T12:43:18.529Z,3.20
2018-04-01T12:45:45.658Z,3.30
2018-04-01T12:48:20.461Z,3.20
2018-04-01T12:50:47.623Z,3.30
2018-04-01T12:53:14.804Z,3.10
2018-04-01T12:55:41.932Z,3.10
2018-04-01T12:58:10.038Z,3.40
2018-04-01T13:00:38.009Z,3.90
2018-04-01T13:03:05.180Z,3.50
2018-04-01T13:05:33.069Z,3.90
2018-04-01T13:08:00.369Z,3.50
2018-04-01T13:10:27.503Z,3.70
2018-04-01T13:12:54.656Z,3.80
2018-04-01T13:15:21.790Z,3.90
2018-04-01T13:17:49.341Z,4.10
2018-04-01T13:20:16.473Z,4.10
2018-04-01T13:22:43.592Z,4.40
2018-04-01T13:25:10.749Z,4.40
2018-04-01T13:27:38.702Z,4.30
2018-04-01T13:30:06.060Z,4.50
2018-04-01T13:32:33.230Z,4.30
2018-04-01T13:35:00.354Z,4.30
2018-04-01T13:37:27.488Z,4.60
2018-04-01T13:39:54.650Z,4.70
2018-04-01T13:42:21.792Z,4.60
2018-04-01T13:44:49.682Z,5.20
2018-04-01T13:47:16.842Z,5.10
2018-04-01T13:49:44.349Z,5.00
2018-04-01T13:52:12.094Z,5.00
2018-04-01T13:54:40.334Z,5.30
2018-04-01T13:57:07.460Z,5.30
2018-04-01T13:59:35.010Z,5.30
2018-04-01T14:02:02.182Z,5.40
2018-04-01T14:04:29.325Z,5.30
2018-04-01T14:06:56.488Z,5.90
2018-04-01T14:09:23.629Z,5.70
2018-04-01T14:11:50.801Z,6.10
2018-04-01T14:14:17.973Z,6.20
2018-04-01T14:16:45.136Z,6.30
2018-04-01T14:19:12.272Z,6.30
2018-04-01T14:21:39.444Z,6.30
2018-04-01T14:24:06.571Z,5.70
2018-04-01T14:26:34.440Z,6.30
2018-04-01T14:29:01.569Z,5.70
2018-04-01T14:31:28.733Z,5.80
2018-04-01T14:33:55.876Z,5.70
2018-04-01T14:36:23.040Z,5.60
2018-04-01T14:38:50.170Z,6.20
2018-04-01T14:41:17.571Z,6.30
2018-04-01T14:43:45.500Z,5.70
2018-04-01T14:46:12.637Z,5.90
2018-04-01T14:48:39.806Z,5.60
2018-04-01T14:51:06.974Z,6.00
2018-04-01T14:53:34.210Z,5.60
2018-04-01T14:56:01.384Z,6.10
2018-04-01T14:58:29.321Z,6.00
2018-04-01T15:00:56.459Z,6.10
2018-04-01T15:03:23.596Z,5.70
2018-04-01T15:05:50.765Z,5.60
2018-04-01T15:08:17.919Z,5.70
2018-04-01T15:10:45.083Z,6.20
2018-04-01T15:13:12.259Z,6.10
2018-04-01T15:15:39.397Z,6.20
2018-04-01T15:18:07.625Z,6.00
2018-04-01T15:20:34.745Z,6.60
2018-04-01T15:23:01.908Z,6.40
2018-04-01T15:25:29.082Z,6.40
2018-04-01T15:27:56.817Z,6.60
2018-04-01T15:30:23.986Z,6.60
2018-04-01T15:32:51.113Z,6.00
2018-04-01T15:35:18.274Z,6.20
2018-04-01T15:37:45.426Z,6.10
2018-04-01T15:40:12.592Z,5.90
2018-04-01T15:42:39.721Z,6.00
2018-04-01T15:45:06.894Z,5.90
2018-04-01T15:47:34.026Z,6.00
2018-04-01T15:50:01.164Z,5.90
2018-04-01T15:52:28.338Z,6.20
2018-04-01T15:54:56.396Z,6.00
2018-04-01T15:57:23.593Z,5.70
2018-04-01T15:59:51.501Z,5.90
2018-04-01T16:02:18.668Z,5.90
2018-04-01T16:04:45.806Z,5.70
2018-04-01T16:07:12.964Z,6.10
2018-04-01T16:09:40.098Z,5.70
2018-04-01T16:12:07.265Z,5.80
2018-04-01T16:14:34.386Z,5.70
2018-04-01T16:17:01.556Z,5.60
2018-04-01T16:19:28.720Z,5.60
2018-04-01T16:21:55.880Z,5.60
2018-04-01T16:24:23.768Z,5.60
2018-04-01T16:26:51.668Z,5.60
2018-04-01T16:29:18.798Z,5.90
2018-04-01T16:31:47.108Z,5.80
2018-04-01T16:34:15.812Z,6.10
2018-04-01T16:36:43.225Z,6.00
2018-04-01T16:39:10.389Z,5.60
2018-04-01T16:41:37.522Z,5.60
2018-04-01T16:44:04.908Z,5.80
2018-04-01T16:46:32.089Z,5.70
2018-04-01T16:49:00.925Z,5.60
2018-04-01T16:51:28.685Z,5.50
2018-04-01T16:53:56.152Z,5.60
2018-04-01T16:56:24.058Z,5.60
2018-04-01T16:58:51.190Z,5.70
2018-04-01T17:01:19.533Z,5.60
2018-04-01T17:03:47.869Z,5.60
2018-04-01T17:06:15.043Z,5.30
2018-04-01T17:08:42.185Z,5.30
2018-04-01T17:11:09.362Z,5.70
2018-04-01T17:13:37.013Z,5.30
2018-04-01T17:16:04.206Z,5.30
2018-04-01T17:18:32.147Z,5.50
2018-04-01T17:20:59.319Z,5.10
2018-04-01T17:23:26.449Z,5.20
2018-04-01T17:25:55.133Z,4.80
2018-04-01T17:28:22.264Z,5.00
2018-04-01T17:30:49.406Z,5.20
2018-04-01T17:33:16.576Z,5.10
2018-04-01T17:35:44.008Z,5.00
2018-04-01T17:38:11.201Z,5.00
2018-04-01T17:40:38.391Z,5.00
2018-04-01T17:43:06.190Z,5.00
2018-04-01T17:45:33.530Z,5.00
2018-04-01T17:48:00.811Z,4.90
2018-04-01T17:50:27.984Z,5.00
2018-04-01T17:52:55.870Z,4.60
2018-04-01T17:55:23.064Z,4.90
2018-04-01T17:57:50.802Z,4.60
2018-04-01T18:00:17.925Z,4.70
2018-04-01T18:02:45.095Z,4.60
2018-04-01T18:05:12.227Z,4.60
2018-04-01T18:07:39.406Z,4.60
2018-04-01T18:10:06.578Z,4.30
2018-04-01T18:12:33.908Z,4.30
2018-04-01T18:15:01.037Z,4.40
2018-04-01T18:17:28.203Z,4.40
2018-04-01T18:19:55.368Z,4.30
2018-04-01T18:22:22.561Z,4.30
2018-04-01T18:24:49.695Z,4.20
2018-04-01T18:27:17.393Z,4.30
2018-04-01T18:29:44.533Z,4.30
2018-04-01T18:32:11.925Z,4.10
2018-04-01T18:34:39.089Z,4.00
2018-04-01T18:37:06.224Z,4.00
2018-04-01T18:39:33.389Z,4.10
2018-04-01T18:42:00.526Z,3.80
2018-04-01T18:44:27.787Z,4.00
2018-04-01T18:46:59.327Z,3.80
2018-04-01T18:49:31.935Z,3.60
2018-04-01T18:51:59.453Z,3.80
2018-04-01T18:54:26.622Z,3.80
2018-04-01T18:56:53.745Z,3.60
2018-04-01T18:59:21.009Z,3.60
2018-04-01T19:01:48.146Z,3.50
2018-04-01T19:04:15.307Z,3.30
2018-04-01T19:06:42.433Z,3.40
2018-04-01T19:09:09.598Z,3.50
2018-04-01T19:11:36.955Z,3.60
2018-04-01T19:14:04.080Z,3.40
2018-04-01T19:16:31.743Z,3.40
2018-04-01T19:18:59.377Z,3.40
2018-04-01T19:21:27.071Z,3.20
2018-04-01T19:23:54.685Z,3.10
2018-04-01T19:26:22.347Z,3.20
2018-04-01T19:28:50.248Z,3.10
2018-04-01T19:31:17.976Z,3.20
2018-04-01T19:33:45.630Z,3.10
2018-04-01T19:36:13.289Z,3.10
2018-04-01T19:38:40.909Z,3.00
2018-04-01T19:41:08.535Z,2.90
2018-04-01T19:43:36.192Z,2.90
2018-04-01T19:46:03.806Z,3.00
2018-04-01T19:48:32.228Z,2.80
2018-04-01T19:50:59.907Z,2.80
2018-04-01T19:53:27.566Z,2.90
2018-04-01T19:55:55.181Z,2.90
2018-04-01T19:58:23.716Z,2.60
2018-04-01T20:00:51.379Z,2.80
2018-04-01T20:03:19.042Z,2.50
2018-04-01T20:05:46.660Z,2.50
2018-04-01T20:08:15.895Z,2.50
2018-04-01T20:10:43.520Z,2.40
2018-04-01T20:13:11.185Z,2.60
2018-04-01T20:15:38.840Z,2.60
2018-04-01T20:18:06.465Z,2.60
2018-04-01T20:20:34.133Z,2.60
2018-04-01T20:23:01.773Z,2.60
2018-04-01T20:25:29.431Z,2.60
2018-04-01T20:27:57.290Z,2.60
2018-04-01T20:30:24.944Z,2.60
2018-04-01T20:32:52.582Z,2.60
2018-04-01T20:35:20.363Z,2.30
2018-04-01T20:37:47.973Z,2.30
2018-04-01T20:40:15.638Z,2.30
2018-04-01T20:42:43.248Z,2.30
2018-04-01T20:45:10.870Z,2.40
2018-04-01T20:47:38.524Z,2.30
2018-04-01T20:50:06.162Z,2.30
2018-04-01T20:52:33.853Z,2.20
2018-04-01T20:55:01.498Z,2.00
2018-04-01T20:57:29.157Z,2.30
2018-04-01T20:59:57.485Z,2.30
2018-04-01T21:02:25.156Z,2.30
2018-04-01T21:04:52.793Z,2.30
2018-04-01T21:07:20.459Z,2.30
2018-04-01T21:09:48.081Z,2.10
2018-04-01T21:12:15.790Z,1.90
2018-04-01T21:14:43.456Z,1.70
2018-04-01T21:17:12.617Z,1.90
2018-04-01T21:19:40.233Z,2.00
2018-04-01T21:22:07.876Z,1.70
2018-04-01T21:24:35.493Z,1.70
2018-04-01T21:27:03.153Z,1.70
2018-04-01T21:29:30.854Z,1.60
2018-04-01T21:31:58.757Z,1.90
2018-04-01T21:34:26.581Z,2.00
2018-04-01T21:36:54.238Z,1.70
2018-04-01T21:39:21.861Z,1.70
2018-04-01T21:41:49.561Z,1.40
2018-04-01T21:44:17.182Z,1.50
2018-04-01T21:46:44.831Z,1.50
2018-04-01T21:49:12.490Z,1.40
2018-04-01T21:51:40.148Z,1.50
2018-04-01T21:54:07.846Z,1.40
2018-04-01T21:56:35.509Z,1.70
2018-04-01T21:59:03.280Z,1.40
2018-04-01T22:01:30.928Z,1.40
2018-04-01T22:03:58.896Z,1.40
2018-04-01T22:06:27.208Z,1.60
2018-04-01T22:08:54.867Z,1.40
2018-04-01T22:11:22.545Z,1.60
2018-04-01T22:13:50.266Z,1.40
2018-04-01T22:16:17.949Z,1.40
2018-04-01T22:18:45.566Z,1.50
2018-04-01T22:21:13.219Z,1.40
2018-04-01T22:23:41.563Z,1.20
2018-04-01T22:26:10.005Z,1.10
2018-04-01T22:28:37.621Z,1.60
2018-04-01T22:31:05.428Z,1.10
2018-04-01T22:33:33.647Z,1.10
2018-04-01T22:36:01.300Z,1.50
2018-04-01T22:38:29.681Z,1.10
2018-04-01T22:40:58.108Z,1.10
2018-04-01T22:43:25.724Z,1.60
2018-04-01T22:45:53.403Z,1.20
2018-04-01T22:48:21.062Z,1.20
2018-04-01T22:50:48.681Z,1.40
2018-04-01T22:53:16.336Z,1.10
2018-04-01T22:55:43.949Z,1.20
2018-04-01T22:58:11.601Z,1.20
2018-04-01T23:00:39.232Z,1.50
2018-04-01T23:03:07.669Z,1.20
2018-04-01T23:05:35.280Z,1.40
2018-04-01T23:08:03.189Z,1.10
2018-04-01T23:10:30.952Z,0.90
2018-04-01T23:12:58.714Z,1.20
2018-04-01T23:15:26.361Z,0.90
2018-04-01T23:17:54.004Z,0.90
2018-04-01T23:20:21.685Z,0.90
2018-04-01T23:22:49.296Z,0.90
2018-04-01T23:25:16.948Z,0.90
2018-04-01T23:27:45.322Z,0.90
2018-04-01T23:30:13.742Z,0.90
2018-04-01T23:32:41.384Z,0.80
2018-04-01T23:35:09.762Z,1.10
2018-04-01T23:37:38.189Z,0.90
2018-04-01T23:40:07.178Z,0.90
2018-04-01T23:42:34.788Z,0.70
2018-04-01T23:45:02.449Z,0.90
2018-04-01T23:47:30.076Z,0.90
2018-04-01T23:49:57.732Z,0.90
2018-04-01T23:52:25.381Z,0.90
2018-04-01T23:54:53.000Z,0.90
2018-04-01T23:57:21.188Z,0.90
2018-04-01T23:59:49.544Z,0.90
